sensor_id;sensor_type;location;lat;lon;timestamp;P1;durP1;ratioP1;P2;durP2;ratioP2
13584;SDS011;6863;48.402;9.994;2023-02-18T00:00:06;4.50;;;3.60;;
13584;SDS011;6863;48.402;9.994;2023-02-18T00:02:34;3.57;;;3.23;;
13584;SDS011;6863;48.402;9.994;2023-02-18T00:04:59;3.37;;;2.97;;
13584;SDS011;6863;48.402;9.994;2023-02-18T00:07:25;4.40;;;3.57;;
13584;SDS011;6863;48.402;9.994;2023-02-18T00:09:51;3.20;;;2.90;;
13584;SDS011;6863;48.402;9.994;2023-02-18T00:12:16;4.47;;;3.20;;
13584;SDS011;6863;48.402;9.994;2023-02-18T00:14:42;3.33;;;2.90;;
13584;SDS011;6863;48.402;9.994;2023-02-18T00:17:07;3.43;;;3.00;;
13584;SDS011;6863;48.402;9.994;2023-02-18T00:19:33;3.17;;;2.80;;
13584;SDS011;6863;48.402;9.994;2023-02-18T00:21:58;3.23;;;2.93;;
13584;SDS011;6863;48.402;9.994;2023-02-18T00:24:24;3.10;;;2.90;;
13584;SDS011;6863;48.402;9.994;2023-02-18T00:26:50;3.40;;;3.10;;
13584;SDS011;6863;48.402;9.994;2023-02-18T00:29:16;2.80;;;2.60;;
13584;SDS011;6863;48.402;9.994;2023-02-18T00:31:42;4.17;;;3.00;;
13584;SDS011;6863;48.402;9.994;2023-02-18T00:34:08;2.87;;;2.60;;
13584;SDS011;6863;48.402;9.994;2023-02-18T00:36:35;2.73;;;2.37;;
13584;SDS011;6863;48.402;9.994;2023-02-18T00:39:01;2.70;;;2.50;;
13584;SDS011;6863;48.402;9.994;2023-02-18T00:41:33;2.30;;;2.20;;
13584;SDS011;6863;48.402;9.994;2023-02-18T00:44:00;3.40;;;2.13;;
13584;SDS011;6863;48.402;9.994;2023-02-18T00:46:26;2.43;;;2.23;;
13584;SDS011;6863;48.402;9.994;2023-02-18T00:48:52;2.40;;;2.20;;
13584;SDS011;6863;48.402;9.994;2023-02-18T00:51:19;2.17;;;2.07;;
13584;SDS011;6863;48.402;9.994;2023-02-18T00:53:45;2.20;;;2.10;;
13584;SDS011;6863;48.402;9.994;2023-02-18T00:56:10;2.30;;;2.10;;
13584;SDS011;6863;48.402;9.994;2023-02-18T00:58:36;2.50;;;2.30;;
13584;SDS011;6863;48.402;9.994;2023-02-18T01:01:03;3.03;;;2.57;;
13584;SDS011;6863;48.402;9.994;2023-02-18T01:03:30;2.10;;;2.00;;
13584;SDS011;6863;48.402;9.994;2023-02-18T01:05:55;2.70;;;2.50;;
13584;SDS011;6863;48.402;9.994;2023-02-18T01:08:21;2.90;;;2.40;;
13584;SDS011;6863;48.402;9.994;2023-02-18T01:10:47;2.73;;;2.40;;
13584;SDS011;6863;48.402;9.994;2023-02-18T01:13:16;3.50;;;2.40;;
13584;SDS011;6863;48.402;9.994;2023-02-18T01:15:42;3.17;;;2.90;;
13584;SDS011;6863;48.402;9.994;2023-02-18T01:18:08;2.40;;;2.20;;
13584;SDS011;6863;48.402;9.994;2023-02-18T01:20:35;2.27;;;2.07;;
13584;SDS011;6863;48.402;9.994;2023-02-18T01:23:01;2.80;;;2.47;;
13584;SDS011;6863;48.402;9.994;2023-02-18T01:25:28;2.40;;;2.20;;
13584;SDS011;6863;48.402;9.994;2023-02-18T01:27:54;3.30;;;3.00;;
13584;SDS011;6863;48.402;9.994;2023-02-18T01:30:20;2.97;;;2.77;;
13584;SDS011;6863;48.402;9.994;2023-02-18T01:32:46;2.90;;;2.67;;
13584;SDS011;6863;48.402;9.994;2023-02-18T01:35:13;3.70;;;2.90;;
13584;SDS011;6863;48.402;9.994;2023-02-18T01:37:40;3.77;;;3.37;;
13584;SDS011;6863;48.402;9.994;2023-02-18T01:40:06;3.43;;;3.13;;
13584;SDS011;6863;48.402;9.994;2023-02-18T01:42:33;2.97;;;2.70;;
13584;SDS011;6863;48.402;9.994;2023-02-18T01:48:09;3.90;;;3.50;;
13584;SDS011;6863;48.402;9.994;2023-02-18T01:50:50;3.87;;;3.57;;
13584;SDS011;6863;48.402;9.994;2023-02-18T01:53:22;3.13;;;2.90;;
13584;SDS011;6863;48.402;9.994;2023-02-18T01:55:55;3.30;;;3.00;;
13584;SDS011;6863;48.402;9.994;2023-02-18T01:58:22;3.53;;;3.23;;
13584;SDS011;6863;48.402;9.994;2023-02-18T02:00:48;4.27;;;3.20;;
13584;SDS011;6863;48.402;9.994;2023-02-18T02:03:14;4.00;;;3.40;;
13584;SDS011;6863;48.402;9.994;2023-02-18T02:05:39;3.20;;;2.90;;
13584;SDS011;6863;48.402;9.994;2023-02-18T02:08:05;3.17;;;2.87;;
13584;SDS011;6863;48.402;9.994;2023-02-18T02:10:48;3.30;;;2.93;;
13584;SDS011;6863;48.402;9.994;2023-02-18T02:13:19;4.07;;;3.70;;
13584;SDS011;6863;48.402;9.994;2023-02-18T02:16:11;3.70;;;3.10;;
13584;SDS011;6863;48.402;9.994;2023-02-18T02:19:25;5.43;;;3.60;;
13584;SDS011;6863;48.402;9.994;2023-02-18T02:22:44;3.47;;;3.03;;
13584;SDS011;6863;48.402;9.994;2023-02-18T02:36:37;3.57;;;3.27;;
13584;SDS011;6863;48.402;9.994;2023-02-18T02:41:38;3.80;;;3.50;;
13584;SDS011;6863;48.402;9.994;2023-02-18T02:47:10;3.53;;;3.23;;
13584;SDS011;6863;48.402;9.994;2023-02-18T02:49:47;4.90;;;3.60;;
13584;SDS011;6863;48.402;9.994;2023-02-18T02:52:19;3.37;;;3.07;;
13584;SDS011;6863;48.402;9.994;2023-02-18T02:54:48;4.30;;;3.10;;
13584;SDS011;6863;48.402;9.994;2023-02-18T02:59:43;3.20;;;3.00;;
13584;SDS011;6863;48.402;9.994;2023-02-18T03:18:13;2.60;;;2.40;;
13584;SDS011;6863;48.402;9.994;2023-02-18T03:21:01;3.00;;;2.70;;
13584;SDS011;6863;48.402;9.994;2023-02-18T03:23:37;6.00;;;3.10;;
13584;SDS011;6863;48.402;9.994;2023-02-18T03:26:08;3.07;;;2.77;;
13584;SDS011;6863;48.402;9.994;2023-02-18T03:28:36;2.90;;;2.70;;
13584;SDS011;6863;48.402;9.994;2023-02-18T03:31:07;2.50;;;2.30;;
13584;SDS011;6863;48.402;9.994;2023-02-18T03:33:42;3.50;;;3.00;;
13584;SDS011;6863;48.402;9.994;2023-02-18T03:36:15;3.03;;;2.73;;
13584;SDS011;6863;48.402;9.994;2023-02-18T03:38:49;3.17;;;2.93;;
13584;SDS011;6863;48.402;9.994;2023-02-18T03:41:21;3.03;;;2.83;;
13584;SDS011;6863;48.402;9.994;2023-02-18T03:43:54;2.80;;;2.60;;
13584;SDS011;6863;48.402;9.994;2023-02-18T03:46:24;4.00;;;2.70;;
13584;SDS011;6863;48.402;9.994;2023-02-18T03:48:51;3.00;;;2.80;;
13584;SDS011;6863;48.402;9.994;2023-02-18T03:51:17;3.03;;;2.73;;
13584;SDS011;6863;48.402;9.994;2023-02-18T03:53:43;4.10;;;3.10;;
13584;SDS011;6863;48.402;9.994;2023-02-18T03:56:09;3.60;;;3.30;;
13584;SDS011;6863;48.402;9.994;2023-02-18T03:58:35;3.53;;;3.07;;
13584;SDS011;6863;48.402;9.994;2023-02-18T04:01:00;3.33;;;3.03;;
13584;SDS011;6863;48.402;9.994;2023-02-18T04:03:26;3.47;;;3.17;;
13584;SDS011;6863;48.402;9.994;2023-02-18T04:05:52;2.83;;;2.63;;
13584;SDS011;6863;48.402;9.994;2023-02-18T04:08:17;2.70;;;2.50;;
13584;SDS011;6863;48.402;9.994;2023-02-18T04:10:43;3.10;;;2.90;;
13584;SDS011;6863;48.402;9.994;2023-02-18T04:13:08;2.87;;;2.67;;
13584;SDS011;6863;48.402;9.994;2023-02-18T04:15:34;3.53;;;3.07;;
13584;SDS011;6863;48.402;9.994;2023-02-18T04:18:00;2.50;;;2.30;;
13584;SDS011;6863;48.402;9.994;2023-02-18T04:20:26;3.73;;;2.80;;
13584;SDS011;6863;48.402;9.994;2023-02-18T04:22:52;2.80;;;2.60;;
13584;SDS011;6863;48.402;9.994;2023-02-18T04:25:17;3.10;;;2.90;;
13584;SDS011;6863;48.402;9.994;2023-02-18T04:27:43;2.50;;;2.30;;
13584;SDS011;6863;48.402;9.994;2023-02-18T04:30:09;3.00;;;2.70;;
13584;SDS011;6863;48.402;9.994;2023-02-18T04:32:35;2.33;;;2.13;;
13584;SDS011;6863;48.402;9.994;2023-02-18T04:35:01;3.70;;;2.47;;
13584;SDS011;6863;48.402;9.994;2023-02-18T04:37:27;3.00;;;2.63;;
13584;SDS011;6863;48.402;9.994;2023-02-18T04:39:52;2.67;;;2.10;;
13584;SDS011;6863;48.402;9.994;2023-02-18T04:42:18;2.50;;;2.30;;
13584;SDS011;6863;48.402;9.994;2023-02-18T04:44:43;2.70;;;2.50;;
13584;SDS011;6863;48.402;9.994;2023-02-18T04:47:09;2.87;;;2.60;;
13584;SDS011;6863;48.402;9.994;2023-02-18T04:49:35;2.83;;;2.60;;
13584;SDS011;6863;48.402;9.994;2023-02-18T04:52:00;2.90;;;2.70;;
13584;SDS011;6863;48.402;9.994;2023-02-18T04:54:26;3.00;;;2.70;;
13584;SDS011;6863;48.402;9.994;2023-02-18T04:56:52;2.63;;;2.43;;
13584;SDS011;6863;48.402;9.994;2023-02-18T04:59:18;3.47;;;3.20;;
13584;SDS011;6863;48.402;9.994;2023-02-18T05:01:43;3.43;;;3.13;;
13584;SDS011;6863;48.402;9.994;2023-02-18T05:04:09;3.30;;;3.00;;
13584;SDS011;6863;48.402;9.994;2023-02-18T05:06:34;3.37;;;3.07;;
13584;SDS011;6863;48.402;9.994;2023-02-18T05:09:02;3.77;;;3.40;;
13584;SDS011;6863;48.402;9.994;2023-02-18T05:11:27;3.93;;;3.63;;
13584;SDS011;6863;48.402;9.994;2023-02-18T05:13:53;3.30;;;3.00;;
13584;SDS011;6863;48.402;9.994;2023-02-18T05:16:18;3.70;;;3.40;;
13584;SDS011;6863;48.402;9.994;2023-02-18T05:18:44;4.37;;;3.97;;
13584;SDS011;6863;48.402;9.994;2023-02-18T05:21:09;3.63;;;3.33;;
13584;SDS011;6863;48.402;9.994;2023-02-18T05:23:36;4.00;;;3.70;;
13584;SDS011;6863;48.402;9.994;2023-02-18T05:26:02;4.30;;;3.90;;
13584;SDS011;6863;48.402;9.994;2023-02-18T05:28:28;4.67;;;3.83;;
13584;SDS011;6863;48.402;9.994;2023-02-18T05:30:53;4.20;;;3.80;;
13584;SDS011;6863;48.402;9.994;2023-02-18T05:33:19;4.00;;;3.70;;
13584;SDS011;6863;48.402;9.994;2023-02-18T05:35:44;4.57;;;4.17;;
13584;SDS011;6863;48.402;9.994;2023-02-18T05:38:10;4.50;;;4.10;;
13584;SDS011;6863;48.402;9.994;2023-02-18T05:40:36;4.50;;;3.97;;
13584;SDS011;6863;48.402;9.994;2023-02-18T05:43:02;4.50;;;4.03;;
13584;SDS011;6863;48.402;9.994;2023-02-18T05:45:28;4.53;;;4.13;;
13584;SDS011;6863;48.402;9.994;2023-02-18T05:47:54;4.50;;;4.10;;
13584;SDS011;6863;48.402;9.994;2023-02-18T05:50:20;3.37;;;3.13;;
13584;SDS011;6863;48.402;9.994;2023-02-18T05:52:45;4.80;;;3.90;;
13584;SDS011;6863;48.402;9.994;2023-02-18T05:55:11;4.13;;;3.83;;
13584;SDS011;6863;48.402;9.994;2023-02-18T05:57:37;4.50;;;4.10;;
13584;SDS011;6863;48.402;9.994;2023-02-18T06:00:03;5.07;;;4.23;;
13584;SDS011;6863;48.402;9.994;2023-02-18T06:02:30;4.00;;;3.70;;
13584;SDS011;6863;48.402;9.994;2023-02-18T06:04:55;6.33;;;4.57;;
13584;SDS011;6863;48.402;9.994;2023-02-18T06:07:21;5.20;;;4.70;;
13584;SDS011;6863;48.402;9.994;2023-02-18T06:09:47;5.20;;;4.70;;
13584;SDS011;6863;48.402;9.994;2023-02-18T06:12:12;6.20;;;5.13;;
13584;SDS011;6863;48.402;9.994;2023-02-18T06:14:38;4.03;;;3.63;;
13584;SDS011;6863;48.402;9.994;2023-02-18T06:17:06;3.63;;;3.33;;
13584;SDS011;6863;48.402;9.994;2023-02-18T06:19:33;3.70;;;3.40;;
13584;SDS011;6863;48.402;9.994;2023-02-18T06:21:59;3.90;;;3.47;;
13584;SDS011;6863;48.402;9.994;2023-02-18T06:24:24;3.90;;;3.60;;
13584;SDS011;6863;48.402;9.994;2023-02-18T06:26:50;3.40;;;3.10;;
13584;SDS011;6863;48.402;9.994;2023-02-18T06:29:16;4.90;;;3.27;;
13584;SDS011;6863;48.402;9.994;2023-02-18T06:31:41;3.70;;;3.40;;
13584;SDS011;6863;48.402;9.994;2023-02-18T06:34:07;4.57;;;3.33;;
13584;SDS011;6863;48.402;9.994;2023-02-18T06:36:33;3.00;;;2.80;;
13584;SDS011;6863;48.402;9.994;2023-02-18T06:38:58;3.13;;;2.70;;
13584;SDS011;6863;48.402;9.994;2023-02-18T06:41:26;6.43;;;3.07;;
13584;SDS011;6863;48.402;9.994;2023-02-18T06:43:52;3.60;;;3.30;;
13584;SDS011;6863;48.402;9.994;2023-02-18T06:46:17;3.00;;;2.70;;
13584;SDS011;6863;48.402;9.994;2023-02-18T06:48:43;3.00;;;2.80;;
13584;SDS011;6863;48.402;9.994;2023-02-18T06:51:08;2.90;;;2.70;;
13584;SDS011;6863;48.402;9.994;2023-02-18T06:53:34;2.87;;;2.67;;
13584;SDS011;6863;48.402;9.994;2023-02-18T06:56:00;2.63;;;2.43;;
13584;SDS011;6863;48.402;9.994;2023-02-18T06:58:25;2.50;;;2.30;;
13584;SDS011;6863;48.402;9.994;2023-02-18T07:00:51;2.13;;;2.03;;
13584;SDS011;6863;48.402;9.994;2023-02-18T07:03:16;2.23;;;2.13;;
13584;SDS011;6863;48.402;9.994;2023-02-18T07:05:42;2.90;;;2.70;;
13584;SDS011;6863;48.402;9.994;2023-02-18T07:08:08;2.07;;;1.97;;
13584;SDS011;6863;48.402;9.994;2023-02-18T07:10:34;2.23;;;2.03;;
13584;SDS011;6863;48.402;9.994;2023-02-18T07:12:59;2.30;;;2.10;;
13584;SDS011;6863;48.402;9.994;2023-02-18T07:15:25;2.23;;;2.03;;
13584;SDS011;6863;48.402;9.994;2023-02-18T07:17:53;2.00;;;1.90;;
13584;SDS011;6863;48.402;9.994;2023-02-18T07:20:19;2.30;;;2.10;;
13584;SDS011;6863;48.402;9.994;2023-02-18T07:22:45;2.10;;;2.00;;
13584;SDS011;6863;48.402;9.994;2023-02-18T07:25:12;2.47;;;2.27;;
13584;SDS011;6863;48.402;9.994;2023-02-18T07:27:38;1.97;;;1.87;;
13584;SDS011;6863;48.402;9.994;2023-02-18T07:30:04;1.93;;;1.83;;
13584;SDS011;6863;48.402;9.994;2023-02-18T07:32:30;2.13;;;2.00;;
13584;SDS011;6863;48.402;9.994;2023-02-18T07:34:56;2.00;;;1.90;;
13584;SDS011;6863;48.402;9.994;2023-02-18T07:37:21;1.90;;;1.80;;
13584;SDS011;6863;48.402;9.994;2023-02-18T07:39:47;2.27;;;2.10;;
13584;SDS011;6863;48.402;9.994;2023-02-18T07:42:13;2.00;;;1.80;;
13584;SDS011;6863;48.402;9.994;2023-02-18T07:44:38;1.70;;;1.60;;
13584;SDS011;6863;48.402;9.994;2023-02-18T07:47:05;2.27;;;1.60;;
13584;SDS011;6863;48.402;9.994;2023-02-18T07:49:32;1.73;;;1.63;;
13584;SDS011;6863;48.402;9.994;2023-02-18T07:51:59;1.60;;;1.50;;
13584;SDS011;6863;48.402;9.994;2023-02-18T07:54:25;2.00;;;1.50;;
13584;SDS011;6863;48.402;9.994;2023-02-18T07:56:51;1.90;;;1.70;;
13584;SDS011;6863;48.402;9.994;2023-02-18T07:59:19;2.03;;;1.93;;
13584;SDS011;6863;48.402;9.994;2023-02-18T08:01:44;1.40;;;1.40;;
13584;SDS011;6863;48.402;9.994;2023-02-18T08:04:10;1.70;;;1.60;;
13584;SDS011;6863;48.402;9.994;2023-02-18T08:06:37;1.60;;;1.50;;
13584;SDS011;6863;48.402;9.994;2023-02-18T08:09:05;1.67;;;1.57;;
13584;SDS011;6863;48.402;9.994;2023-02-18T08:11:32;1.80;;;1.70;;
13584;SDS011;6863;48.402;9.994;2023-02-18T08:13:58;1.70;;;1.60;;
13584;SDS011;6863;48.402;9.994;2023-02-18T08:16:24;1.50;;;1.40;;
13584;SDS011;6863;48.402;9.994;2023-02-18T08:18:50;1.63;;;1.50;;
13584;SDS011;6863;48.402;9.994;2023-02-18T08:21:17;1.87;;;1.77;;
13584;SDS011;6863;48.402;9.994;2023-02-18T08:23:44;1.60;;;1.50;;
13584;SDS011;6863;48.402;9.994;2023-02-18T08:26:11;1.60;;;1.50;;
13584;SDS011;6863;48.402;9.994;2023-02-18T08:28:37;1.53;;;1.47;;
13584;SDS011;6863;48.402;9.994;2023-02-18T08:31:03;1.60;;;1.50;;
13584;SDS011;6863;48.402;9.994;2023-02-18T08:33:29;1.50;;;1.40;;
13584;SDS011;6863;48.402;9.994;2023-02-18T08:35:55;1.47;;;1.47;;
13584;SDS011;6863;48.402;9.994;2023-02-18T08:38:21;1.60;;;1.50;;
13584;SDS011;6863;48.402;9.994;2023-02-18T08:40:48;1.50;;;1.40;;
13584;SDS011;6863;48.402;9.994;2023-02-18T08:43:24;1.77;;;1.40;;
13584;SDS011;6863;48.402;9.994;2023-02-18T08:45:50;1.70;;;1.60;;
13584;SDS011;6863;48.402;9.994;2023-02-18T08:48:16;1.70;;;1.60;;
13584;SDS011;6863;48.402;9.994;2023-02-18T08:50:41;1.73;;;1.63;;
13584;SDS011;6863;48.402;9.994;2023-02-18T08:53:07;1.60;;;1.50;;
13584;SDS011;6863;48.402;9.994;2023-02-18T08:55:32;2.43;;;1.60;;
13584;SDS011;6863;48.402;9.994;2023-02-18T08:57:59;1.63;;;1.53;;
13584;SDS011;6863;48.402;9.994;2023-02-18T09:00:25;1.43;;;1.43;;
13584;SDS011;6863;48.402;9.994;2023-02-18T09:02:51;1.40;;;1.30;;
13584;SDS011;6863;48.402;9.994;2023-02-18T09:05:17;1.60;;;1.50;;
13584;SDS011;6863;48.402;9.994;2023-02-18T09:07:42;1.63;;;1.53;;
13584;SDS011;6863;48.402;9.994;2023-02-18T09:10:08;1.43;;;1.37;;
13584;SDS011;6863;48.402;9.994;2023-02-18T09:12:34;1.60;;;1.50;;
13584;SDS011;6863;48.402;9.994;2023-02-18T09:15:00;1.63;;;1.53;;
13584;SDS011;6863;48.402;9.994;2023-02-18T09:17:27;1.90;;;1.60;;
13584;SDS011;6863;48.402;9.994;2023-02-18T09:19:53;1.67;;;1.57;;
13584;SDS011;6863;48.402;9.994;2023-02-18T09:22:19;1.37;;;1.27;;
13584;SDS011;6863;48.402;9.994;2023-02-18T09:24:45;1.10;;;1.10;;
13584;SDS011;6863;48.402;9.994;2023-02-18T09:27:11;1.30;;;1.20;;
13584;SDS011;6863;48.402;9.994;2023-02-18T09:29:37;1.43;;;1.33;;
13584;SDS011;6863;48.402;9.994;2023-02-18T09:32:04;1.27;;;1.20;;
13584;SDS011;6863;48.402;9.994;2023-02-18T09:34:30;1.30;;;1.20;;
13584;SDS011;6863;48.402;9.994;2023-02-18T09:36:56;1.40;;;1.30;;
13584;SDS011;6863;48.402;9.994;2023-02-18T09:39:24;1.50;;;1.37;;
13584;SDS011;6863;48.402;9.994;2023-02-18T09:46:58;0.80;;;0.80;;
13584;SDS011;6863;48.402;9.994;2023-02-18T09:49:31;0.93;;;0.93;;
13584;SDS011;6863;48.402;9.994;2023-02-18T09:54:44;1.10;;;1.10;;
13584;SDS011;6863;48.402;9.994;2023-02-18T09:57:23;1.30;;;1.20;;
13584;SDS011;6863;48.402;9.994;2023-02-18T09:59:55;1.00;;;1.00;;
13584;SDS011;6863;48.402;9.994;2023-02-18T10:02:25;1.20;;;1.10;;
13584;SDS011;6863;48.402;9.994;2023-02-18T10:04:51;1.33;;;1.23;;
13584;SDS011;6863;48.402;9.994;2023-02-18T10:07:29;1.20;;;1.10;;
13584;SDS011;6863;48.402;9.994;2023-02-18T10:09:58;1.43;;;1.20;;
13584;SDS011;6863;48.402;9.994;2023-02-18T10:12:29;1.10;;;1.10;;
13584;SDS011;6863;48.402;9.994;2023-02-18T10:14:58;1.13;;;1.13;;
13584;SDS011;6863;48.402;9.994;2023-02-18T10:17:26;1.43;;;1.33;;
13584;SDS011;6863;48.402;9.994;2023-02-18T10:19:54;1.33;;;1.10;;
13584;SDS011;6863;48.402;9.994;2023-02-18T10:22:23;1.73;;;1.50;;
13584;SDS011;6863;48.402;9.994;2023-02-18T10:24:51;1.93;;;1.40;;
13584;SDS011;6863;48.402;9.994;2023-02-18T10:30:20;1.40;;;1.30;;
13584;SDS011;6863;48.402;9.994;2023-02-18T10:35:49;1.47;;;1.37;;
13584;SDS011;6863;48.402;9.994;2023-02-18T10:38:33;1.50;;;1.40;;
13584;SDS011;6863;48.402;9.994;2023-02-18T10:46:53;1.97;;;1.40;;
13584;SDS011;6863;48.402;9.994;2023-02-18T10:52:16;1.30;;;1.30;;
13584;SDS011;6863;48.402;9.994;2023-02-18T10:57:55;1.77;;;1.67;;
13584;SDS011;6863;48.402;9.994;2023-02-18T11:00:24;1.67;;;1.57;;
13584;SDS011;6863;48.402;9.994;2023-02-18T11:05:36;2.00;;;1.50;;
13584;SDS011;6863;48.402;9.994;2023-02-18T11:08:03;1.73;;;1.33;;
13584;SDS011;6863;48.402;9.994;2023-02-18T11:10:34;1.43;;;1.33;;
13584;SDS011;6863;48.402;9.994;2023-02-18T11:13:07;3.70;;;1.50;;
13584;SDS011;6863;48.402;9.994;2023-02-18T11:15:34;1.30;;;1.30;;
13584;SDS011;6863;48.402;9.994;2023-02-18T11:18:14;1.90;;;1.80;;
13584;SDS011;6863;48.402;9.994;2023-02-18T11:21:48;2.07;;;1.67;;
13584;SDS011;6863;48.402;9.994;2023-02-18T11:24:05;1.57;;;1.47;;
13584;SDS011;6863;48.402;9.994;2023-02-18T11:26:33;1.67;;;1.57;;
13584;SDS011;6863;48.402;9.994;2023-02-18T11:29:22;1.37;;;1.27;;
13584;SDS011;6863;48.402;9.994;2023-02-18T11:31:51;1.60;;;1.50;;
13584;SDS011;6863;48.402;9.994;2023-02-18T11:34:20;1.80;;;1.70;;
13584;SDS011;6863;48.402;9.994;2023-02-18T11:36:50;1.57;;;1.47;;
13584;SDS011;6863;48.402;9.994;2023-02-18T11:39:18;1.43;;;1.33;;
13584;SDS011;6863;48.402;9.994;2023-02-18T11:44:27;2.93;;;1.50;;
13584;SDS011;6863;48.402;9.994;2023-02-18T11:47:00;1.50;;;1.40;;
13584;SDS011;6863;48.402;9.994;2023-02-18T11:55:25;2.43;;;1.30;;
13584;SDS011;6863;48.402;9.994;2023-02-18T11:57:55;1.93;;;1.80;;
13584;SDS011;6863;48.402;9.994;2023-02-18T12:03:04;2.63;;;1.37;;
13584;SDS011;6863;48.402;9.994;2023-02-18T12:05:47;2.00;;;1.77;;
13584;SDS011;6863;48.402;9.994;2023-02-18T12:08:16;2.13;;;1.50;;
13584;SDS011;6863;48.402;9.994;2023-02-18T12:10:47;3.92;;;1.40;;
13584;SDS011;6863;48.402;9.994;2023-02-18T12:13:26;1.70;;;1.50;;
13584;SDS011;6863;48.402;9.994;2023-02-18T12:18:53;2.08;;;1.40;;
13584;SDS011;6863;48.402;9.994;2023-02-18T12:24:29;2.45;;;1.70;;
13584;SDS011;6863;48.402;9.994;2023-02-18T12:38:28;1.35;;;1.25;;
13584;SDS011;6863;48.402;9.994;2023-02-18T12:44:17;1.23;;;1.13;;
13584;SDS011;6863;48.402;9.994;2023-02-18T12:46:58;1.40;;;1.30;;
13584;SDS011;6863;48.402;9.994;2023-02-18T12:55:19;2.15;;;1.48;;
13584;SDS011;6863;48.402;9.994;2023-02-18T13:01:02;1.45;;;1.30;;
13584;SDS011;6863;48.402;9.994;2023-02-18T13:15:10;1.73;;;0.88;;
13584;SDS011;6863;48.402;9.994;2023-02-18T13:17:37;1.35;;;1.25;;
13584;SDS011;6863;48.402;9.994;2023-02-18T13:20:06;1.10;;;1.10;;
13584;SDS011;6863;48.402;9.994;2023-02-18T13:22:50;1.70;;;1.08;;
13584;SDS011;6863;48.402;9.994;2023-02-18T13:25:17;1.25;;;1.15;;
13584;SDS011;6863;48.402;9.994;2023-02-18T13:33:13;1.10;;;1.10;;
13584;SDS011;6863;48.402;9.994;2023-02-18T13:35:53;1.33;;;1.27;;
13584;SDS011;6863;48.402;9.994;2023-02-18T13:41:06;1.23;;;1.00;;
13584;SDS011;6863;48.402;9.994;2023-02-18T13:43:33;1.00;;;1.00;;
13584;SDS011;6863;48.402;9.994;2023-02-18T13:49:20;1.23;;;1.17;;
13584;SDS011;6863;48.402;9.994;2023-02-18T13:56:49;1.60;;;1.20;;
13584;SDS011;6863;48.402;9.994;2023-02-18T14:04:47;2.13;;;1.27;;
13584;SDS011;6863;48.402;9.994;2023-02-18T14:10:04;1.83;;;1.02;;
13584;SDS011;6863;48.402;9.994;2023-02-18T14:17:48;1.17;;;1.17;;
13584;SDS011;6863;48.402;9.994;2023-02-18T14:20:29;1.15;;;1.02;;
13584;SDS011;6863;48.402;9.994;2023-02-18T14:25:51;1.63;;;1.27;;
13584;SDS011;6863;48.402;9.994;2023-02-18T14:36:45;2.80;;;2.10;;
13584;SDS011;6863;48.402;9.994;2023-02-18T14:49:52;3.37;;;2.17;;
13584;SDS011;6863;48.402;9.994;2023-02-18T14:54:59;1.67;;;1.57;;
13584;SDS011;6863;48.402;9.994;2023-02-18T14:57:30;1.87;;;1.67;;
13584;SDS011;6863;48.402;9.994;2023-02-18T15:00:14;1.43;;;1.33;;
13584;SDS011;6863;48.402;9.994;2023-02-18T15:02:50;1.90;;;1.80;;
13584;SDS011;6863;48.402;9.994;2023-02-18T15:05:21;1.80;;;1.40;;
13584;SDS011;6863;48.402;9.994;2023-02-18T15:10:33;2.00;;;1.70;;
13584;SDS011;6863;48.402;9.994;2023-02-18T15:13:13;1.60;;;1.50;;
13584;SDS011;6863;48.402;9.994;2023-02-18T15:15:51;1.43;;;1.33;;
13584;SDS011;6863;48.402;9.994;2023-02-18T15:18:22;1.80;;;1.70;;
13584;SDS011;6863;48.402;9.994;2023-02-18T15:20:55;1.70;;;1.50;;
13584;SDS011;6863;48.402;9.994;2023-02-18T15:23:21;2.17;;;1.50;;
13584;SDS011;6863;48.402;9.994;2023-02-18T15:25:51;1.70;;;1.60;;
13584;SDS011;6863;48.402;9.994;2023-02-18T15:28:30;1.70;;;1.60;;
13584;SDS011;6863;48.402;9.994;2023-02-18T15:30:58;1.43;;;1.33;;
13584;SDS011;6863;48.402;9.994;2023-02-18T15:33:25;1.43;;;1.40;;
13584;SDS011;6863;48.402;9.994;2023-02-18T15:35:58;2.83;;;1.70;;
13584;SDS011;6863;48.402;9.994;2023-02-18T15:38:27;3.33;;;1.90;;
13584;SDS011;6863;48.402;9.994;2023-02-18T15:40:53;1.77;;;1.67;;
13584;SDS011;6863;48.402;9.994;2023-02-18T15:43:26;2.03;;;1.60;;
13584;SDS011;6863;48.402;9.994;2023-02-18T15:45:53;3.43;;;1.80;;
13584;SDS011;6863;48.402;9.994;2023-02-18T15:51:02;1.83;;;1.73;;
13584;SDS011;6863;48.402;9.994;2023-02-18T15:53:29;1.90;;;1.80;;
13584;SDS011;6863;48.402;9.994;2023-02-18T15:56:03;3.17;;;1.70;;
13584;SDS011;6863;48.402;9.994;2023-02-18T15:58:33;2.40;;;1.73;;
13584;SDS011;6863;48.402;9.994;2023-02-18T16:01:00;1.67;;;1.57;;
13584;SDS011;6863;48.402;9.994;2023-02-18T16:03:34;1.60;;;1.50;;
13584;SDS011;6863;48.402;9.994;2023-02-18T16:11:40;2.03;;;1.70;;
13584;SDS011;6863;48.402;9.994;2023-02-18T16:22:51;1.97;;;1.83;;
13584;SDS011;6863;48.402;9.994;2023-02-18T16:25:26;2.97;;;2.23;;
13584;SDS011;6863;48.402;9.994;2023-02-18T16:28:16;2.17;;;1.97;;
13584;SDS011;6863;48.402;9.994;2023-02-18T16:30:47;2.00;;;1.83;;
13584;SDS011;6863;48.402;9.994;2023-02-18T16:33:13;2.13;;;1.97;;
13584;SDS011;6863;48.402;9.994;2023-02-18T16:35:39;2.93;;;1.93;;
13584;SDS011;6863;48.402;9.994;2023-02-18T16:38:06;2.47;;;2.03;;
13584;SDS011;6863;48.402;9.994;2023-02-18T16:40:32;2.30;;;1.60;;
13584;SDS011;6863;48.402;9.994;2023-02-18T16:43:24;2.30;;;2.10;;
13584;SDS011;6863;48.402;9.994;2023-02-18T16:45:51;2.67;;;2.10;;
13584;SDS011;6863;48.402;9.994;2023-02-18T16:48:25;2.90;;;2.30;;
13584;SDS011;6863;48.402;9.994;2023-02-18T16:50:55;2.97;;;2.20;;
13584;SDS011;6863;48.402;9.994;2023-02-18T16:53:23;1.70;;;1.60;;
13584;SDS011;6863;48.402;9.994;2023-02-18T16:55:49;2.40;;;1.93;;
13584;SDS011;6863;48.402;9.994;2023-02-18T16:58:15;2.10;;;1.90;;
13584;SDS011;6863;48.402;9.994;2023-02-18T17:00:41;2.77;;;2.53;;
13584;SDS011;6863;48.402;9.994;2023-02-18T17:03:08;2.97;;;2.33;;
13584;SDS011;6863;48.402;9.994;2023-02-18T17:05:34;2.40;;;2.20;;
13584;SDS011;6863;48.402;9.994;2023-02-18T17:08:17;2.33;;;1.97;;
13584;SDS011;6863;48.402;9.994;2023-02-18T17:10:48;3.70;;;2.33;;
13584;SDS011;6863;48.402;9.994;2023-02-18T17:13:16;2.20;;;2.00;;
13584;SDS011;6863;48.402;9.994;2023-02-18T17:15:44;2.63;;;2.17;;
13584;SDS011;6863;48.402;9.994;2023-02-18T17:18:10;2.47;;;2.27;;
13584;SDS011;6863;48.402;9.994;2023-02-18T17:20:37;2.50;;;2.30;;
13584;SDS011;6863;48.402;9.994;2023-02-18T17:23:03;2.47;;;2.27;;
13584;SDS011;6863;48.402;9.994;2023-02-18T17:25:38;3.83;;;2.13;;
13584;SDS011;6863;48.402;9.994;2023-02-18T17:28:04;2.20;;;2.00;;
13584;SDS011;6863;48.402;9.994;2023-02-18T17:30:31;2.70;;;2.33;;
13584;SDS011;6863;48.402;9.994;2023-02-18T17:33:01;3.37;;;2.53;;
13584;SDS011;6863;48.402;9.994;2023-02-18T17:35:28;2.73;;;2.53;;
13584;SDS011;6863;48.402;9.994;2023-02-18T17:37:53;3.53;;;2.80;;
13584;SDS011;6863;48.402;9.994;2023-02-18T17:40:20;3.33;;;2.90;;
13584;SDS011;6863;48.402;9.994;2023-02-18T17:42:48;3.43;;;2.73;;
13584;SDS011;6863;48.402;9.994;2023-02-18T17:45:23;2.67;;;2.47;;
13584;SDS011;6863;48.402;9.994;2023-02-18T17:47:57;3.37;;;2.77;;
13584;SDS011;6863;48.402;9.994;2023-02-18T17:50:24;2.53;;;2.30;;
13584;SDS011;6863;48.402;9.994;2023-02-18T17:52:50;2.60;;;2.40;;
13584;SDS011;6863;48.402;9.994;2023-02-18T17:55:29;2.40;;;2.20;;
13584;SDS011;6863;48.402;9.994;2023-02-18T17:57:57;3.73;;;2.63;;
13584;SDS011;6863;48.402;9.994;2023-02-18T18:00:28;2.70;;;2.40;;
13584;SDS011;6863;48.402;9.994;2023-02-18T18:02:58;2.30;;;2.10;;
13584;SDS011;6863;48.402;9.994;2023-02-18T18:05:26;2.63;;;2.43;;
13584;SDS011;6863;48.402;9.994;2023-02-18T18:07:54;2.73;;;2.40;;
13584;SDS011;6863;48.402;9.994;2023-02-18T18:10:21;3.67;;;3.27;;
13584;SDS011;6863;48.402;9.994;2023-02-18T18:12:59;2.83;;;2.63;;
13584;SDS011;6863;48.402;9.994;2023-02-18T18:15:31;2.60;;;2.40;;
13584;SDS011;6863;48.402;9.994;2023-02-18T18:18:00;2.50;;;2.30;;
13584;SDS011;6863;48.402;9.994;2023-02-18T18:20:27;2.90;;;2.40;;
13584;SDS011;6863;48.402;9.994;2023-02-18T18:22:57;2.97;;;2.60;;